Time;durP1;ratioP1;P1;durP2;ratioP2;P2;SDS_P1;SDS_P2;PMS_P1;PMS_P2;Temp;Humidity;BMP_temperature;BMP_pressure;BME280_temperature;BME280_humidity;BME280_pressure;Samples;Min_cycle;Max_cycle;Signal;HPM_P1;HPM_P2
2022/04/08 00:02:07;;;;;;;7.28;4.00;;;;;;;9.27;77.21;97520.52;1653606;80;21189;-90
2022/04/08 00:04:34;;;;;;;8.35;4.40;;;;;;;9.23;77.92;97513.80;1594574;89;21568;-92
2022/04/08 00:07:01;;;;;;;7.50;4.12;;;;;;;9.24;77.37;97505.55;1649542;87;21029;-92
2022/04/08 00:09:28;;;;;;;9.35;4.08;;;;;;;9.22;77.96;97507.38;1730654;81;21099;-92
2022/04/08 00:11:57;;;;;;;6.40;4.00;;;;;;;9.23;77.99;97520.70;1691374;84;21014;-90
2022/04/08 00:14:24;;;;;;;8.18;4.00;;;;;;;9.23;78.15;97517.68;1742151;82;20982;-87
2022/04/08 00:16:51;;;;;;;6.97;3.85;;;;;;;9.25;78.13;97513.70;1768228;80;21119;-87
2022/04/08 00:19:18;;;;;;;8.75;4.25;;;;;;;9.25;77.77;97510.67;1701647;81;21016;-89
2022/04/08 00:21:48;;;;;;;8.43;4.05;;;;;;;9.26;77.85;97516.23;1704876;80;21062;-86
2022/04/08 00:24:14;;;;;;;9.43;4.60;;;;;;;9.22;78.09;97513.39;1709648;83;21020;-86
2022/04/08 00:26:42;;;;;;;13.20;4.30;;;;;;;9.23;77.71;97520.27;1769564;80;21030;-87
2022/04/08 00:29:08;;;;;;;7.55;4.05;;;;;;;9.20;77.55;97522.98;1770591;81;20987;-86
2022/04/08 00:31:36;;;;;;;9.58;4.50;;;;;;;9.17;77.35;97520.52;1713363;81;21055;-87
2022/04/08 00:34:02;;;;;;;10.03;4.50;;;;;;;9.14;77.59;97521.50;1702752;80;21083;-89
2022/04/08 00:36:29;;;;;;;9.33;5.10;;;;;;;9.13;76.54;97525.45;1770094;80;21003;-88
2022/04/08 00:38:55;;;;;;;8.18;3.98;;;;;;;9.08;76.98;97541.69;1782679;80;21558;-86
2022/04/08 00:41:23;;;;;;;9.20;4.17;;;;;;;9.04;76.60;97537.55;1760821;80;21047;-88
2022/04/08 00:43:49;;;;;;;8.93;4.58;;;;;;;9.00;76.47;97546.37;1759641;80;20972;-86
2022/04/08 00:46:16;;;;;;;9.13;3.92;;;;;;;8.95;76.12;97544.82;1773166;79;21109;-86
2022/04/08 00:48:43;;;;;;;6.28;4.10;;;;;;;8.92;77.53;97546.23;1721481;83;21044;-87
2022/04/08 00:51:11;;;;;;;11.03;3.80;;;;;;;8.89;76.34;97543.80;1725170;83;21023;-86
2022/04/08 00:53:39;;;;;;;7.62;4.45;;;;;;;8.88;77.12;97550.33;1730916;78;21599;-89
2022/04/08 00:56:05;;;;;;;8.25;4.70;;;;;;;8.87;78.13;97552.52;1730414;82;21492;-90
2022/04/08 00:58:35;;;;;;;12.65;4.75;;;;;;;8.87;77.02;97555.11;1673451;85;21087;-91
2022/04/08 01:01:02;;;;;;;8.83;4.22;;;;;;;8.85;78.40;97555.63;1702364;80;21154;-86
2022/04/08 01:03:28;;;;;;;8.83;4.45;;;;;;;8.84;78.10;97562.56;1706710;83;21552;-91
2022/04/08 01:05:56;;;;;;;7.85;4.80;;;;;;;8.84;78.97;97565.16;1704590;83;21037;-92
2022/04/08 01:08:23;;;;;;;11.73;5.05;;;;;;;8.83;78.99;97572.53;1723205;81;21622;-89
2022/04/08 01:10:50;;;;;;;8.50;5.40;;;;;;;8.82;79.51;97570.86;1730079;81;21067;-88
2022/04/08 01:13:16;;;;;;;10.30;5.28;;;;;;;8.85;79.47;97576.36;1728420;80;20955;-91
2022/04/08 01:15:44;;;;;;;12.40;5.47;;;;;;;8.83;79.17;97580.30;1728247;80;21286;-89
2022/04/08 01:18:11;;;;;;;10.25;5.58;;;;;;;8.85;78.42;97582.84;1725239;82;21057;-85
2022/04/08 01:20:38;;;;;;;12.03;5.95;;;;;;;8.80;78.88;97589.52;1725003;81;21007;-86
2022/04/08 01:23:05;;;;;;;9.28;6.15;;;;;;;8.76;78.66;97590.09;1710466;80;21123;-88
2022/04/08 01:25:33;;;;;;;11.63;6.28;;;;;;;8.71;79.51;97587.30;1709080;79;21149;-87
2022/04/08 01:27:59;;;;;;;11.78;6.15;;;;;;;8.69;78.71;97587.82;1712898;83;21080;-85
2022/04/08 01:30:26;;;;;;;9.65;5.83;;;;;;;8.66;78.44;97593.15;1700674;84;20991;-85
2022/04/08 01:32:53;;;;;;;13.50;6.10;;;;;;;8.67;77.62;97603.88;1692346;85;21054;-86
2022/04/08 01:35:20;;;;;;;9.65;6.00;;;;;;;8.62;79.74;97596.77;1703271;82;21078;-86
2022/04/08 01:37:46;;;;;;;11.63;5.72;;;;;;;8.43;78.75;97574.65;1676946;79;21024;-89
2022/04/08 01:40:14;;;;;;;11.63;5.90;;;;;;;8.62;79.18;97599.36;1709815;81;21018;-87
2022/04/08 01:42:40;;;;;;;11.03;5.72;;;;;;;8.61;79.28;97596.36;1761949;79;21044;-88
2022/04/08 01:45:09;;;;;;;10.50;5.90;;;;;;;8.62;79.26;97595.48;1718327;83;21051;-90
2022/04/08 01:47:36;;;;;;;12.85;5.83;;;;;;;8.57;79.46;97594.34;1709016;84;21457;-90
2022/04/08 01:50:03;;;;;;;12.20;6.35;;;;;;;8.57;79.66;97591.76;1660208;81;21079;-88
2022/04/08 01:52:29;;;;;;;10.13;5.47;;;;;;;8.58;79.23;97592.63;1640122;86;21020;-90
2022/04/08 01:54:56;;;;;;;9.55;5.75;;;;;;;8.57;79.27;97591.76;1635842;86;21067;-89
2022/04/08 01:57:23;;;;;;;12.00;5.62;;;;;;;8.55;79.71;97594.44;1641261;86;21691;-88
2022/04/08 01:59:53;;;;;;;9.30;5.42;;;;;;;8.54;79.60;97595.78;1676188;80;21075;-90
2022/04/08 02:02:20;;;;;;;12.05;6.30;;;;;;;8.52;79.62;97598.44;1718333;80;21099;-91
2022/04/08 02:04:48;;;;;;;9.55;5.42;;;;;;;8.52;79.62;97597.13;1746242;80;21090;-89
2022/04/08 02:07:14;;;;;;;13.70;6.50;;;;;;;8.55;80.31;97593.14;1754095;81;21111;-89
2022/04/08 02:09:41;;;;;;;13.15;6.20;;;;;;;8.59;79.75;97586.52;1754221;81;20992;-90
2022/04/08 02:12:08;;;;;;;12.25;6.33;;;;;;;8.63;79.98;97583.73;1691723;84;21520;-88
2022/04/08 02:14:34;;;;;;;31.65;12.53;;;;;;;8.69;79.67;97578.75;1753665;81;21043;-88
2022/04/08 02:17:01;;;;;;;17.02;7.60;;;;;;;8.70;80.34;97574.81;1752131;81;21031;-88
2022/04/08 02:19:27;;;;;;;11.35;6.25;;;;;;;8.72;79.43;97576.05;1751125;81;20992;-87
2022/04/08 02:21:54;;;;;;;11.25;6.35;;;;;;;8.73;79.11;97575.99;1751368;82;21019;-90
2022/04/08 02:24:21;;;;;;;10.78;6.60;;;;;;;8.71;79.50;97580.83;1744951;80;21060;-90
2022/04/08 02:26:47;;;;;;;10.45;5.97;;;;;;;8.70;79.74;97579.99;1725406;82;20993;-90
2022/04/08 02:29:14;;;;;;;14.35;6.65;;;;;;;8.69;80.19;97573.57;1740397;82;21503;-91
2022/04/08 02:31:41;;;;;;;11.05;7.08;;;;;;;8.65;78.80;97570.26;1740334;82;21016;-91
2022/04/08 02:34:07;;;;;;;13.18;6.45;;;;;;;8.60;80.16;97564.45;1740428;82;21551;-89
2022/04/08 02:36:34;;;;;;;7.62;5.17;;;;;;;8.53;81.46;97557.82;1738835;82;21000;-91
2022/04/08 02:39:01;;;;;;;16.70;6.83;;;;;;;8.57;79.23;97567.15;1708050;84;22159;-90
2022/04/08 02:41:27;;;;;;;16.00;6.33;;;;;;;8.49;79.98;97572.64;1742859;82;21000;-91
2022/04/08 02:43:54;;;;;;;12.18;6.62;;;;;;;8.47;80.64;97577.04;1708158;84;21034;-88
2022/04/08 02:46:20;;;;;;;19.23;7.40;;;;;;;8.43;81.82;97581.12;1702689;83;21070;-90
2022/04/08 02:48:47;;;;;;;18.35;7.90;;;;;;;8.41;81.40;97579.02;1708041;84;21053;-91
2022/04/08 02:51:13;;;;;;;15.05;7.62;;;;;;;8.37;81.76;97570.53;1741683;82;21528;-89
2022/04/08 02:53:40;;;;;;;15.08;6.95;;;;;;;8.37;81.70;97574.41;1743759;82;20972;-91
2022/04/08 02:56:07;;;;;;;15.90;6.90;;;;;;;8.36;82.01;97579.22;1707984;84;21033;-90
2022/04/08 02:58:35;;;;;;;14.50;7.75;;;;;;;8.34;82.04;97588.33;1743720;81;20985;-90
2022/04/08 03:01:04;;;;;;;16.65;8.03;;;;;;;8.35;82.06;97591.76;1711052;81;22111;-90
2022/04/08 03:03:31;;;;;;;14.05;7.70;;;;;;;8.33;81.71;97583.20;1716084;80;21096;-90
2022/04/08 03:05:58;;;;;;;12.93;6.65;;;;;;;8.31;81.18;97592.33;1768084;80;20998;-89
2022/04/08 03:08:25;;;;;;;14.75;7.78;;;;;;;8.30;80.89;97589.36;1750183;81;21084;-91
2022/04/08 03:10:51;;;;;;;16.25;7.65;;;;;;;8.22;80.65;97582.81;1768061;81;21517;-91
2022/04/08 03:13:18;;;;;;;16.55;7.37;;;;;;;8.16;81.13;97587.78;1747933;81;20993;-90
2022/04/08 03:15:44;;;;;;;16.00;7.85;;;;;;;8.10;81.52;97588.02;1753620;81;20997;-91
2022/04/08 03:18:12;;;;;;;17.12;8.05;;;;;;;8.07;81.59;97586.83;1752710;81;21073;-91
2022/04/08 03:20:39;;;;;;;15.78;6.37;;;;;;;8.03;81.49;97586.11;1705982;80;21143;-91
2022/04/08 03:23:05;;;;;;;13.30;7.20;;;;;;;8.01;81.67;97589.20;1711253;83;21026;-91
2022/04/08 03:25:32;;;;;;;14.38;7.95;;;;;;;7.99;81.97;97585.83;1702139;83;21014;-91
2022/04/08 03:27:59;;;;;;;13.10;7.05;;;;;;;7.98;81.71;97584.16;1711172;83;21037;-91
2022/04/08 03:30:27;;;;;;;15.85;8.13;;;;;;;7.96;81.96;97584.67;1711241;83;20995;-87
2022/04/08 03:32:55;;;;;;;13.70;6.97;;;;;;;7.93;83.69;97584.78;1684269;79;21120;-90
2022/04/08 03:35:21;;;;;;;13.05;8.03;;;;;;;7.92;82.50;97597.34;1721169;82;21106;-89
2022/04/08 03:37:48;;;;;;;20.00;7.87;;;;;;;7.87;82.66;97591.03;1724751;82;21011;-89
2022/04/08 03:40:14;;;;;;;18.98;8.10;;;;;;;7.85;82.49;97594.58;1723268;81;21018;-89
2022/04/08 03:42:41;;;;;;;14.25;8.03;;;;;;;7.82;82.46;97603.74;1724799;82;20976;-89
2022/04/08 03:45:08;;;;;;;16.73;8.48;;;;;;;7.83;82.01;97608.03;1724743;82;21063;-91
2022/04/08 03:47:35;;;;;;;17.55;7.50;;;;;;;7.83;82.67;97617.92;1725646;82;21020;-90
2022/04/08 03:50:01;;;;;;;17.30;8.20;;;;;;;7.80;82.98;97618.48;1728568;82;21040;-91
2022/04/08 03:52:32;;;;;;;15.38;7.90;;;;;;;7.79;82.82;97621.98;1701936;80;21035;-89
2022/04/08 03:54:57;;;;;;;13.10;7.92;;;;;;;7.80;82.58;97631.41;1700543;82;21111;-86
2022/04/08 03:57:23;;;;;;;18.05;8.13;;;;;;;7.80;83.34;97631.41;1700636;82;21039;-84
2022/04/08 03:59:50;;;;;;;13.88;8.08;;;;;;;7.80;83.02;97637.88;1689638;84;21021;-86
2022/04/08 04:02:16;;;;;;;16.67;8.25;;;;;;;7.79;82.73;97633.17;1723411;81;21417;-90
2022/04/08 04:04:44;;;;;;;14.85;7.55;;;;;;;7.79;82.63;97647.86;1734971;82;21064;-89
2022/04/08 04:07:10;;;;;;;20.70;9.88;;;;;;;7.80;82.86;97644.35;1718058;81;20974;-87
2022/04/08 04:09:37;;;;;;;18.95;9.50;;;;;;;7.76;83.30;97650.11;1717907;80;21111;-86
2022/04/08 04:12:05;;;;;;;17.75;9.58;;;;;;;7.73;83.82;97643.29;1734240;80;21032;-86
2022/04/08 04:14:31;;;;;;;14.87;8.10;;;;;;;7.70;84.10;97642.55;1768538;80;21580;-88
2022/04/08 04:16:58;;;;;;;16.10;9.20;;;;;;;7.68;84.21;97642.63;1709069;83;20992;-87
2022/04/08 04:19:25;;;;;;;20.50;9.88;;;;;;;7.66;85.32;97648.31;1706386;83;21049;-88
2022/04/08 04:21:52;;;;;;;20.85;9.78;;;;;;;7.68;82.88;97663.33;1723311;82;21000;-88
2022/04/08 04:24:18;;;;;;;19.25;9.80;;;;;;;7.66;84.56;97669.00;1732177;82;21019;-90
2022/04/08 04:26:45;;;;;;;19.10;9.15;;;;;;;7.65;84.28;97667.77;1713375;82;21076;-89
2022/04/08 04:29:12;;;;;;;23.35;8.65;;;;;;;7.66;83.59;97670.72;1735111;82;21012;-90
2022/04/08 04:31:40;;;;;;;17.87;8.60;;;;;;;7.68;84.22;97654.27;1738723;80;20989;-86
2022/04/08 04:34:06;;;;;;;25.95;10.13;;;;;;;7.74;84.00;97654.50;1696008;80;21607;-88
2022/04/08 04:36:33;;;;;;;16.87;9.13;;;;;;;7.79;83.76;97660.34;1709237;84;21039;-89
2022/04/08 04:38:59;;;;;;;17.07;9.53;;;;;;;7.87;83.81;97652.30;1707376;84;21612;-91
2022/04/08 04:41:26;;;;;;;15.23;7.70;;;;;;;7.95;83.39;97664.49;1700749;83;21076;-89
2022/04/08 04:43:52;;;;;;;15.43;8.03;;;;;;;8.02;83.70;97683.21;1706834;83;21022;-88
2022/04/08 04:46:19;;;;;;;15.50;8.18;;;;;;;8.12;83.37;97693.64;1711876;83;21006;-89
2022/04/08 04:48:47;;;;;;;18.37;8.30;;;;;;;8.21;83.56;97698.91;1706514;83;21053;-90
2022/04/08 04:51:16;;;;;;;14.83;7.85;;;;;;;8.30;83.61;97697.28;1672800;78;21137;-90
2022/04/08 04:53:43;;;;;;;22.30;8.88;;;;;;;8.41;83.27;97698.14;1692996;80;21631;-88
2022/04/08 04:56:09;;;;;;;19.30;8.80;;;;;;;8.49;83.28;97693.08;1709414;83;21064;-90
2022/04/08 04:58:36;;;;;;;18.55;8.95;;;;;;;8.58;83.38;97695.78;1709224;82;21032;-89
2022/04/08 05:01:02;;;;;;;19.82;8.95;;;;;;;8.68;83.02;97695.80;1713985;84;21013;-88
2022/04/08 05:03:29;;;;;;;17.75;9.15;;;;;;;8.76;82.60;97697.63;1710810;82;21034;-87
2022/04/08 05:05:56;;;;;;;17.00;8.23;;;;;;;8.84;82.53;97689.55;1690835;85;21584;-88
2022/04/08 05:08:22;;;;;;;22.55;8.25;;;;;;;8.91;82.30;97693.59;1701593;84;21011;-91
2022/04/08 05:10:49;;;;;;;17.40;8.38;;;;;;;9.02;81.87;97684.53;1713951;82;20997;-84
2022/04/08 05:13:16;;;;;;;13.28;6.42;;;;;;;9.12;81.10;97693.61;1722055;82;21016;-86
2022/04/08 05:15:45;;;;;;;18.65;7.55;;;;;;;9.19;81.10;97688.56;1702642;83;21048;-83
2022/04/08 05:18:14;;;;;;;12.73;7.20;;;;;;;9.27;81.06;97690.81;1708932;84;21156;-83
2022/04/08 05:20:41;;;;;;;16.55;6.67;;;;;;;9.38;81.13;97694.27;1711709;84;21016;-84
2022/04/08 05:23:08;;;;;;;15.35;7.00;;;;;;;9.48;80.78;97696.39;1696594;85;21052;-84
2022/04/08 05:25:34;;;;;;;16.07;7.75;;;;;;;9.57;80.79;97701.66;1696372;84;21055;-85
2022/04/08 05:28:01;;;;;;;18.65;8.25;;;;;;;9.67;80.47;97700.34;1696483;83;21043;-84
2022/04/08 05:30:27;;;;;;;17.17;8.50;;;;;;;9.71;80.58;97708.38;1696402;85;21071;-85
2022/04/08 05:32:55;;;;;;;28.67;9.40;;;;;;;9.84;80.31;97702.64;1696539;83;21023;-84
2022/04/08 05:35:22;;;;;;;19.80;8.80;;;;;;;9.91;79.89;97702.30;1692992;82;20977;-85
2022/04/08 05:37:49;;;;;;;19.00;8.58;;;;;;;9.99;79.77;97696.77;1709646;81;21025;-85
2022/04/08 05:40:21;;;;;;;15.50;8.38;;;;;;;10.11;79.10;97702.70;1711375;81;21048;-86
2022/04/08 05:42:51;;;;;;;15.60;8.00;;;;;;;10.15;78.87;97704.25;1686182;84;20977;-85
2022/04/08 05:45:21;;;;;;;21.20;9.85;;;;;;;10.24;78.70;97712.52;1717656;80;21097;-91
2022/04/08 05:47:50;;;;;;;16.27;8.40;;;;;;;10.31;78.71;97708.78;1725505;80;21005;-83
2022/04/08 05:50:19;;;;;;;17.80;8.10;;;;;;;10.35;78.54;97710.31;1715111;81;21085;-86
2022/04/08 05:52:47;;;;;;;17.35;8.10;;;;;;;10.41;78.43;97714.39;1718497;82;21027;-85
2022/04/08 05:55:14;;;;;;;18.02;7.97;;;;;;;10.47;78.59;97715.41;1724130;82;21023;-85
2022/04/08 05:57:41;;;;;;;21.52;8.45;;;;;;;10.53;78.57;97707.32;1748156;82;20983;-83
2022/04/08 06:00:10;;;;;;;21.93;8.28;;;;;;;10.60;78.40;97713.06;1726558;81;20992;-86
2022/04/08 06:02:38;;;;;;;16.25;8.40;;;;;;;10.67;78.45;97718.36;1708016;82;21063;-85
2022/04/08 06:05:07;;;;;;;21.27;8.43;;;;;;;10.76;78.31;97733.50;1704453;83;21044;-87
2022/04/08 06:07:34;;;;;;;15.23;7.75;;;;;;;10.83;78.03;97741.41;1718297;81;21036;-85
2022/04/08 06:10:02;;;;;;;14.38;6.78;;;;;;;10.97;77.62;97746.41;1720598;83;21065;-85
2022/04/08 06:12:29;;;;;;;11.63;5.75;;;;;;;11.04;76.74;97747.78;1728986;82;21162;-86
2022/04/08 06:14:55;;;;;;;11.68;5.33;;;;;;;11.16;75.80;97744.61;1729010;80;21666;-87
2022/04/08 06:17:22;;;;;;;17.15;5.15;;;;;;;11.31;75.60;97749.03;1718117;82;21003;-89
2022/04/08 06:19:50;;;;;;;12.00;4.78;;;;;;;11.50;73.75;97745.53;1714915;82;21024;-86
2022/04/08 06:22:17;;;;;;;12.13;4.30;;;;;;;11.66;73.55;97743.00;1706026;82;21021;-85
2022/04/08 06:24:43;;;;;;;8.78;4.37;;;;;;;11.84;72.16;97743.81;1717446;82;21037;-85
2022/04/08 06:27:10;;;;;;;15.13;6.22;;;;;;;12.00;72.01;97751.23;1714855;82;21027;-83
2022/04/08 06:29:37;;;;;;;12.47;5.22;;;;;;;12.12;72.13;97745.84;1715679;82;21039;-82
2022/04/08 06:32:05;;;;;;;10.45;5.40;;;;;;;12.27;70.29;97746.78;1714286;82;21036;-87
2022/04/08 06:34:32;;;;;;;12.28;4.92;;;;;;;12.42;70.67;97735.53;1713287;82;21037;-84
2022/04/08 06:36:59;;;;;;;12.30;4.85;;;;;;;12.52;69.65;97730.20;1716266;82;21144;-83
2022/04/08 06:39:26;;;;;;;9.73;4.20;;;;;;;12.63;69.41;97732.67;1715108;82;21010;-87
2022/04/08 06:41:52;;;;;;;9.48;4.28;;;;;;;12.74;67.65;97731.63;1719678;81;21008;-84
2022/04/08 06:44:19;;;;;;;11.45;4.47;;;;;;;12.82;66.91;97729.89;1718799;82;21281;-86
2022/04/08 06:46:46;;;;;;;11.12;4.65;;;;;;;12.93;67.31;97719.68;1724259;82;21539;-86
2022/04/08 06:49:13;;;;;;;18.70;5.45;;;;;;;13.04;66.43;97715.17;1718444;79;21148;-89
2022/04/08 06:51:39;;;;;;;11.20;4.87;;;;;;;13.09;65.50;97726.17;1720509;82;21043;-88
2022/04/08 06:54:06;;;;;;;8.10;4.45;;;;;;;13.16;65.10;97732.73;1713571;82;20973;-88
2022/04/08 06:56:33;;;;;;;11.00;4.60;;;;;;;13.25;65.00;97751.79;1710372;82;20986;-84
2022/04/08 06:59:01;;;;;;;11.30;4.40;;;;;;;13.21;64.63;97753.34;1715632;82;20992;-88
2022/04/08 07:01:30;;;;;;;10.63;4.45;;;;;;;13.30;64.53;97761.52;1677934;80;21092;-91
2022/04/08 07:04:00;;;;;;;11.40;4.03;;;;;;;13.45;63.10;97768.08;1695731;81;21234;-88
2022/04/08 07:06:28;;;;;;;11.55;4.45;;;;;;;13.58;61.63;97776.06;1733611;81;21068;-85
2022/04/08 07:08:57;;;;;;;6.80;4.03;;;;;;;13.78;60.21;97765.27;1738298;81;21055;-87
2022/04/08 07:11:25;;;;;;;12.70;4.10;;;;;;;13.99;57.98;97782.76;1731772;82;21072;-86
2022/04/08 07:13:51;;;;;;;7.00;3.80;;;;;;;14.18;57.24;97781.64;1733024;81;21005;-86
2022/04/08 07:16:19;;;;;;;9.83;3.72;;;;;;;14.31;56.49;97776.88;1730895;81;20993;-83
2022/04/08 07:19:05;;;;;;;13.48;4.03;;;;;;;14.41;56.36;97787.61;1732180;82;21094;-85
2022/04/08 07:21:34;;;;;;;8.60;3.98;;;;;;;14.53;56.45;97792.55;1687806;83;21108;-89
2022/04/08 07:24:01;;;;;;;9.15;4.95;;;;;;;14.64;54.84;97812.39;1717149;82;21686;-90
2022/04/08 07:26:27;;;;;;;9.60;4.85;;;;;;;14.74;54.23;97806.09;1714045;82;20996;-90
2022/04/08 07:28:55;;;;;;;9.55;4.60;;;;;;;14.79;54.09;97806.66;1720259;82;21024;-86
2022/04/08 07:31:22;;;;;;;9.75;4.40;;;;;;;14.88;54.93;97821.78;1687286;79;21125;-88
2022/04/08 07:33:49;;;;;;;8.68;4.08;;;;;;;14.90;54.23;97831.69;1672548;84;21099;-90
2022/04/08 07:36:16;;;;;;;8.98;4.70;;;;;;;15.07;53.90;97833.70;1680231;83;21083;-87
2022/04/08 07:38:43;;;;;;;9.05;5.17;;;;;;;15.02;52.26;97842.30;1675587;82;21110;-89
2022/04/08 07:41:10;;;;;;;8.38;4.20;;;;;;;15.05;51.27;97852.59;1669599;84;21041;-91
2022/04/08 07:43:36;;;;;;;10.23;4.33;;;;;;;15.15;51.49;97852.37;1666840;82;21080;-91
2022/04/08 07:46:03;;;;;;;11.85;4.20;;;;;;;15.23;51.90;97849.27;1671182;84;21002;-89
2022/04/08 07:48:31;;;;;;;9.55;4.60;;;;;;;15.36;51.46;97835.77;1671453;84;21018;-90
2022/04/08 07:50:58;;;;;;;10.32;4.20;;;;;;;15.43;53.09;97838.34;1668184;82;21037;-88
2022/04/08 07:53:24;;;;;;;17.27;5.10;;;;;;;15.56;53.03;97849.33;1688182;84;20996;-87
2022/04/08 07:55:51;;;;;;;9.03;4.33;;;;;;;15.59;51.94;97863.55;1687356;81;20991;-87
2022/04/08 07:58:18;;;;;;;6.75;4.40;;;;;;;15.65;51.73;97862.66;1753830;80;21007;-87
2022/04/08 08:00:44;;;;;;;12.10;5.12;;;;;;;15.63;51.56;97871.09;1726146;80;21083;-84
2022/04/08 08:03:15;;;;;;;10.40;4.67;;;;;;;15.64;50.77;97875.41;1728172;82;21024;-86
2022/04/08 08:05:40;;;;;;;11.88;5.55;;;;;;;15.50;51.77;97879.41;1729642;81;21132;-88
2022/04/08 08:08:07;;;;;;;9.80;5.80;;;;;;;15.41;51.63;97889.15;1730538;82;21051;-85
2022/04/08 08:10:35;;;;;;;8.03;5.10;;;;;;;15.36;51.08;97895.14;1720423;81;21051;-83
2022/04/08 08:13:06;;;;;;;12.68;5.30;;;;;;;15.33;52.43;97902.73;1705206;79;22406;31
2022/04/08 08:15:36;;;;;;;10.13;4.72;;;;;;;15.27;53.96;97900.50;1685502;84;21052;-93
2022/04/08 08:18:05;;;;;;;14.58;5.40;;;;;;;15.29;54.30;97909.09;1702144;78;21141;-92
2022/04/08 08:20:31;;;;;;;12.30;5.05;;;;;;;15.24;54.57;97925.11;1701686;84;20996;-87
2022/04/08 08:22:58;;;;;;;10.40;6.22;;;;;;;15.19;54.92;97928.47;1697697;82;21132;-88
2022/04/08 08:25:25;;;;;;;14.40;6.25;;;;;;;15.16;52.52;97932.60;1683339;84;21020;-90
2022/04/08 08:27:59;;;;;;;10.72;5.30;;;;;;;15.18;52.55;97937.27;1679558;84;21044;-88
2022/04/08 08:30:25;;;;;;;14.68;5.30;;;;;;;15.29;53.83;97929.56;1669849;84;21084;-89
2022/04/08 08:32:52;;;;;;;14.28;5.45;;;;;;;15.33;54.05;97935.94;1686168;84;21032;-85
2022/04/08 08:35:19;;;;;;;11.55;5.12;;;;;;;15.43;54.59;97935.24;1680701;84;21115;-85
2022/04/08 08:37:48;;;;;;;12.63;5.40;;;;;;;15.55;54.48;97948.03;1685617;84;21033;-85
2022/04/08 08:40:17;;;;;;;10.30;5.15;;;;;;;15.63;54.56;97939.21;1678448;84;20995;-85
2022/04/08 08:42:44;;;;;;;11.28;5.35;;;;;;;15.78;53.42;97945.77;1679568;84;21002;-87
2022/04/08 08:45:15;;;;;;;8.60;4.78;;;;;;;15.76;52.82;97938.00;1682285;84;21064;-89
2022/04/08 08:47:47;;;;;;;8.65;5.15;;;;;;;15.92;53.31;97940.47;1678489;84;21079;-86
2022/04/08 08:50:16;;;;;;;9.13;5.05;;;;;;;15.99;52.54;97940.41;1679078;84;21092;-85
2022/04/08 08:52:42;;;;;;;13.20;5.72;;;;;;;16.13;52.00;97953.09;1691887;84;21037;-85
2022/04/08 08:55:09;;;;;;;15.80;5.33;;;;;;;16.04;51.20;97939.66;1675576;84;21040;-84
2022/04/08 08:57:36;;;;;;;12.63;5.55;;;;;;;16.16;51.54;97939.80;1672075;84;21054;-85
2022/04/08 09:00:13;;;;;;;10.95;5.00;;;;;;;16.19;50.76;97929.09;1699432;83;20988;-88
2022/04/08 09:02:41;;;;;;;11.12;5.72;;;;;;;16.32;51.26;97934.38;1695892;83;21080;-87
2022/04/08 09:05:24;;;;;;;12.47;5.37;;;;;;;16.41;50.58;97928.04;1706471;83;21033;-87
2022/04/08 09:08:00;;;;;;;16.85;5.40;;;;;;;16.49;50.04;97929.67;1714181;83;21056;-87
2022/04/08 09:10:46;;;;;;;13.22;6.17;;;;;;;16.54;48.92;97935.08;1752294;81;21019;-88
2022/04/08 09:13:21;;;;;;;9.13;5.53;;;;;;;16.59;49.29;97933.83;1708673;81;21268;-86
2022/04/08 09:16:02;;;;;;;12.58;5.60;;;;;;;16.68;49.28;97942.84;1744173;81;20962;-83
2022/04/08 09:18:34;;;;;;;8.43;5.78;;;;;;;16.66;47.77;97949.50;1736311;81;21114;-85
2022/04/08 09:21:00;;;;;;;10.15;5.03;;;;;;;16.76;48.58;97947.56;1745383;81;21550;-82
2022/04/08 09:23:33;;;;;;;13.90;5.58;;;;;;;16.78;47.04;97947.81;1740747;80;21037;-84
2022/04/08 09:26:09;;;;;;;12.00;5.22;;;;;;;16.79;48.10;97960.02;1714481;82;21403;-85
2022/04/08 09:28:37;;;;;;;11.95;6.08;;;;;;;16.78;47.38;97966.19;1708860;82;20995;-83
2022/04/08 09:31:05;;;;;;;9.70;5.15;;;;;;;16.81;48.25;97971.28;1707429;83;21032;-88
2022/04/08 09:33:33;;;;;;;10.72;5.87;;;;;;;16.94;48.00;97974.37;1713268;82;21032;-89
2022/04/08 09:36:00;;;;;;;8.45;5.22;;;;;;;17.04;46.72;97979.34;1721442;82;21096;-87
2022/04/08 09:38:32;;;;;;;13.93;6.40;;;;;;;17.08;46.69;97968.99;1675868;84;21789;-79
2022/04/08 09:41:10;;;;;;;13.28;5.53;;;;;;;17.09;47.10;97973.31;1712147;82;21055;-81
2022/04/08 09:43:38;;;;;;;12.43;6.12;;;;;;;17.08;46.29;97981.64;1716490;82;21045;-81
2022/04/08 09:46:21;;;;;;;12.00;6.05;;;;;;;17.11;46.33;97981.92;1717873;82;21122;-81
2022/04/08 09:48:49;;;;;;;9.43;5.70;;;;;;;17.11;47.11;97989.80;1713973;82;21017;-79
2022/04/08 09:51:23;;;;;;;10.95;6.10;;;;;;;17.14;46.65;97990.05;1721389;82;20981;-82
2022/04/08 09:53:57;;;;;;;12.85;5.40;;;;;;;17.27;47.13;97993.52;1710282;82;20989;-83
2022/04/08 09:56:28;;;;;;;15.08;5.75;;;;;;;17.20;45.81;97986.52;1655756;84;21587;-81
2022/04/08 09:59:14;;;;;;;17.67;5.83;;;;;;;17.17;46.24;97985.44;1703219;82;21485;-80
2022/04/08 10:01:44;;;;;;;12.78;6.20;;;;;;;17.12;46.83;97974.39;1710715;82;21099;-79
2022/04/08 10:04:11;;;;;;;12.73;6.10;;;;;;;17.17;46.59;97978.00;1711756;82;21050;-81
2022/04/08 10:06:41;;;;;;;12.63;6.20;;;;;;;17.13;46.40;97985.28;1708158;82;21026;-80
2022/04/08 10:09:11;;;;;;;10.70;5.97;;;;;;;17.19;46.04;97991.41;1713168;82;20995;-78
2022/04/08 10:11:58;;;;;;;11.08;6.70;;;;;;;17.19;46.39;97990.55;1709634;82;21056;-80
2022/04/08 10:14:58;;;;;;;11.68;6.03;;;;;;;17.26;46.00;97990.02;1711417;82;21120;-80
2022/04/08 10:17:24;;;;;;;12.37;6.75;;;;;;;17.32;45.84;97983.50;1708540;82;21034;-80
2022/04/08 10:19:51;;;;;;;13.13;6.67;;;;;;;17.36;45.86;97994.16;1709680;82;21088;-81
2022/04/08 10:22:20;;;;;;;10.55;5.55;;;;;;;17.48;46.33;97991.14;1706254;82;21682;-81
2022/04/08 10:24:55;;;;;;;9.20;5.70;;;;;;;17.62;45.38;97984.42;1721263;82;21030;-85
2022/04/08 10:27:38;;;;;;;12.15;5.55;;;;;;;17.75;45.41;97980.94;1718479;82;21088;-80
2022/04/08 10:30:21;;;;;;;10.03;6.00;;;;;;;17.73;44.72;97981.52;1722509;82;20999;-85
2022/04/08 10:32:58;;;;;;;15.05;6.58;;;;;;;17.92;44.58;97994.19;1710625;82;21072;-80
2022/04/08 10:35:25;;;;;;;13.28;5.70;;;;;;;17.83;44.87;97987.34;1704445;82;21016;-82
2022/04/08 10:38:00;;;;;;;12.23;5.53;;;;;;;17.90;44.63;97990.35;1723589;82;21061;-80
2022/04/08 10:40:36;;;;;;;11.75;6.40;;;;;;;17.87;44.44;97994.53;1725651;82;21064;-82
2022/04/08 10:43:08;;;;;;;9.90;5.78;;;;;;;17.91;44.34;97992.05;1728532;82;21035;-81
2022/04/08 10:45:36;;;;;;;13.05;5.67;;;;;;;17.84;44.13;97985.54;1724629;82;21053;-83
2022/04/08 10:48:14;;;;;;;10.68;6.20;;;;;;;17.84;44.52;97992.11;1726407;82;21045;-81
2022/04/08 10:50:41;;;;;;;12.55;5.50;;;;;;;17.96;44.03;97987.75;1720499;82;21074;-81
2022/04/08 10:53:11;;;;;;;9.38;5.62;;;;;;;18.08;44.12;97977.65;1722652;82;21094;-82
2022/04/08 10:55:57;;;;;;;9.58;5.67;;;;;;;18.01;44.04;97977.75;1722819;82;21723;-81
2022/04/08 10:58:44;;;;;;;12.90;5.90;;;;;;;18.09;43.99;97970.97;1715526;82;21031;-80
2022/04/08 11:01:22;;;;;;;11.30;5.58;;;;;;;18.29;43.73;97977.86;1729521;80;21571;-82
2022/04/08 11:04:00;;;;;;;14.83;6.15;;;;;;;18.37;42.76;97987.82;1689374;84;20992;-84
2022/04/08 11:06:31;;;;;;;12.78;5.85;;;;;;;18.41;43.48;97987.95;1726026;82;21085;-80
2022/04/08 11:09:07;;;;;;;13.32;6.33;;;;;;;18.56;43.25;97984.17;1716069;82;21040;-83
2022/04/08 11:11:36;;;;;;;11.35;5.62;;;;;;;18.53;42.50;97976.98;1723532;82;21556;-82
2022/04/08 11:14:05;;;;;;;11.00;5.72;;;;;;;18.70;42.72;97980.47;1727311;82;21323;-82
2022/04/08 11:16:34;;;;;;;10.98;6.30;;;;;;;18.75;41.75;97978.34;1725766;82;21059;-80
2022/04/08 11:19:05;;;;;;;11.55;6.53;;;;;;;18.83;42.47;97985.69;1726193;82;21045;-81
2022/04/08 11:21:35;;;;;;;9.05;6.03;;;;;;;18.97;41.76;97985.94;1733783;82;21141;-84
2022/04/08 11:24:12;;;;;;;12.95;6.42;;;;;;;19.05;42.03;97986.19;1721960;81;21087;-80
2022/04/08 11:26:45;;;;;;;11.30;6.15;;;;;;;19.05;40.96;97985.70;1725411;81;21083;-82
2022/04/08 11:29:15;;;;;;;13.40;5.80;;;;;;;19.27;41.18;97975.64;1722053;81;21031;-80
2022/04/08 11:31:44;;;;;;;14.20;6.25;;;;;;;19.34;40.38;97977.78;1725461;81;21098;-79
2022/04/08 11:34:16;;;;;;;11.43;5.85;;;;;;;19.51;40.59;97977.30;1727930;81;21035;-83
2022/04/08 11:36:42;;;;;;;14.03;6.40;;;;;;;19.35;40.35;97964.98;1732752;81;20988;-81
2022/04/08 11:39:12;;;;;;;10.08;5.67;;;;;;;19.41;40.42;97977.19;1710586;81;21115;-81